createdAt,value
2019-03-12T00:00:29.345Z,7.30
2019-03-12T00:02:57.871Z,7.40
2019-03-12T00:05:26.431Z,7.60
2019-03-12T00:07:54.907Z,7.60
2019-03-12T00:10:23.395Z,7.60
2019-03-12T00:12:51.877Z,7.50
2019-03-12T00:15:20.389Z,7.40
2019-03-12T00:17:48.916Z,7.30
2019-03-12T00:20:17.360Z,7.20
2019-03-12T00:22:45.922Z,7.20
2019-03-12T00:25:14.403Z,7.10
2019-03-12T00:27:42.829Z,7.10
2019-03-12T00:30:11.639Z,7.00
2019-03-12T00:32:40.086Z,7.00
2019-03-12T00:35:09.068Z,6.90
2019-03-12T00:37:37.790Z,6.90
2019-03-12T00:40:07.782Z,6.90
2019-03-12T00:42:36.225Z,6.80
2019-03-12T00:45:07.920Z,6.90
2019-03-12T00:47:36.353Z,7.00
2019-03-12T00:50:07.439Z,7.00
2019-03-12T00:52:35.869Z,7.10
2019-03-12T00:55:06.122Z,7.20
2019-03-12T00:57:34.560Z,7.20
2019-03-12T01:00:04.279Z,7.20
2019-03-12T01:02:32.796Z,7.20
2019-03-12T01:05:01.323Z,7.10
2019-03-12T01:07:29.953Z,7.00
2019-03-12T01:09:58.496Z,7.00
2019-03-12T01:12:26.970Z,7.00
2019-03-12T01:14:55.671Z,7.00
2019-03-12T01:17:24.103Z,7.00
2019-03-12T01:19:52.611Z,7.00
2019-03-12T01:22:21.062Z,6.90
2019-03-12T01:24:49.492Z,6.80
2019-03-12T01:27:17.953Z,6.80
2019-03-12T01:29:46.379Z,6.90
2019-03-12T01:32:14.823Z,6.90
2019-03-12T01:34:43.262Z,6.90
2019-03-12T01:37:11.707Z,6.90
2019-03-12T01:39:40.148Z,6.90
2019-03-12T01:42:08.604Z,6.90
2019-03-12T01:44:37.058Z,6.90
2019-03-12T01:47:05.577Z,6.80
2019-03-12T01:49:34.002Z,6.80
2019-03-12T01:52:02.496Z,6.80
2019-03-12T01:54:30.922Z,7.00
2019-03-12T01:56:59.383Z,7.10
2019-03-12T01:59:27.869Z,7.10
2019-03-12T02:01:56.335Z,7.00
2019-03-12T02:04:24.906Z,6.90
2019-03-12T02:06:53.432Z,6.80
2019-03-12T02:09:21.935Z,6.70
2019-03-12T02:11:50.389Z,6.60
2019-03-12T02:14:23.977Z,6.50
2019-03-12T02:16:52.511Z,6.50
2019-03-12T02:19:21.097Z,6.50
2019-03-12T02:21:49.602Z,6.50
2019-03-12T02:24:18.183Z,6.50
2019-03-12T02:26:46.698Z,6.60
2019-03-12T02:29:15.298Z,6.70
2019-03-12T02:31:43.916Z,6.80
2019-03-12T02:34:12.443Z,6.70
2019-03-12T02:36:40.873Z,6.70
2019-03-12T02:39:09.787Z,6.80
2019-03-12T02:41:38.279Z,6.70
2019-03-12T02:44:06.725Z,6.70
2019-03-12T02:46:35.161Z,6.60
2019-03-12T02:49:03.683Z,6.30
2019-03-12T02:51:32.119Z,6.30
2019-03-12T02:54:00.578Z,6.20
2019-03-12T02:56:29.004Z,6.20
2019-03-12T02:58:57.457Z,6.20
2019-03-12T03:01:25.947Z,6.30
2019-03-12T03:03:54.396Z,6.30
2019-03-12T03:06:36.463Z,6.40
2019-03-12T03:09:06.740Z,6.50
2019-03-12T03:11:35.221Z,6.60
2019-03-12T03:14:03.729Z,6.60
2019-03-12T03:16:32.154Z,6.50
2019-03-12T03:19:01.171Z,6.40
2019-03-12T03:21:29.599Z,6.30
2019-03-12T03:23:58.034Z,6.10
2019-03-12T03:26:26.656Z,6.00
2019-03-12T03:28:55.093Z,6.10
2019-03-12T03:31:23.546Z,6.10
2019-03-12T03:33:51.988Z,6.20
2019-03-12T03:36:20.496Z,6.20
2019-03-12T03:38:48.987Z,6.20
2019-03-12T03:41:17.519Z,6.20
2019-03-12T03:43:45.951Z,6.20
2019-03-12T03:46:14.420Z,6.10
2019-03-12T03:48:42.856Z,6.00
2019-03-12T03:51:11.372Z,6.00
2019-03-12T03:53:39.899Z,6.10
2019-03-12T03:56:08.348Z,6.10
2019-03-12T03:58:36.778Z,6.00
2019-03-12T04:01:05.398Z,6.10
2019-03-12T04:03:33.885Z,6.00
2019-03-12T04:06:02.328Z,5.90
2019-03-12T04:08:30.781Z,5.70
2019-03-12T04:10:59.290Z,5.70
2019-03-12T04:13:27.716Z,5.60
2019-03-12T04:15:56.179Z,5.60
2019-03-12T04:18:24.613Z,5.60
2019-03-12T04:20:53.111Z,5.60
2019-03-12T04:23:21.570Z,5.60
2019-03-12T04:25:50.060Z,5.60
2019-03-12T04:28:18.513Z,5.50
2019-03-12T04:30:47.040Z,5.60
2019-03-12T04:33:53.800Z,5.70
2019-03-12T04:36:22.313Z,5.70
2019-03-12T04:38:50.763Z,5.70
2019-03-12T04:41:19.192Z,5.80
2019-03-12T04:43:47.651Z,5.90
2019-03-12T04:46:16.108Z,5.90
2019-03-12T04:48:44.614Z,6.00
2019-03-12T04:51:13.054Z,5.90
2019-03-12T04:53:41.515Z,6.00
2019-03-12T04:56:10.035Z,6.00
2019-03-12T04:58:38.521Z,5.90
2019-03-12T05:01:07.007Z,5.90
2019-03-12T05:03:35.498Z,5.90
2019-03-12T05:06:03.930Z,5.90
2019-03-12T05:08:32.370Z,5.80
2019-03-12T05:11:00.842Z,5.80
2019-03-12T05:13:29.346Z,5.80
2019-03-12T05:15:57.786Z,5.70
2019-03-12T05:18:26.268Z,5.60
2019-03-12T05:20:54.747Z,5.70
2019-03-12T05:23:23.216Z,5.60
2019-03-12T05:25:51.642Z,5.60
2019-03-12T05:28:20.126Z,5.60
2019-03-12T05:30:48.825Z,5.70
2019-03-12T05:33:17.330Z,5.70
2019-03-12T05:35:45.774Z,5.70
2019-03-12T05:38:14.215Z,5.80
2019-03-12T05:40:42.755Z,5.90
2019-03-12T05:43:11.183Z,5.90
2019-03-12T05:45:39.639Z,5.80
2019-03-12T05:48:08.082Z,5.80
2019-03-12T05:50:36.559Z,5.80
2019-03-12T05:53:13.674Z,5.80
2019-03-12T05:55:42.394Z,5.90
2019-03-12T05:58:10.835Z,6.00
2019-03-12T06:00:39.286Z,6.00
2019-03-12T06:03:07.720Z,6.10
2019-03-12T06:05:36.175Z,6.00
2019-03-12T06:08:04.895Z,5.90
2019-03-12T06:10:33.812Z,5.90
2019-03-12T06:13:02.244Z,5.80
2019-03-12T06:15:30.688Z,5.80
2019-03-12T06:17:59.187Z,5.90
2019-03-12T06:20:27.719Z,5.90
2019-03-12T06:22:56.153Z,6.00
2019-03-12T06:25:24.630Z,6.00
2019-03-12T06:27:53.131Z,6.10
2019-03-12T06:30:21.587Z,6.10
2019-03-12T06:32:51.734Z,6.10
2019-03-12T06:35:24.570Z,6.10
2019-03-12T06:37:54.635Z,6.30
2019-03-12T06:40:24.849Z,6.40
2019-03-12T06:42:57.670Z,6.40
2019-03-12T06:45:43.087Z,6.30
2019-03-12T06:48:24.921Z,6.30
2019-03-12T06:50:57.680Z,6.30
2019-03-12T06:53:44.200Z,6.20
2019-03-12T06:56:17.254Z,6.30
2019-03-12T06:58:47.336Z,6.20
2019-03-12T07:01:17.404Z,6.20
2019-03-12T07:04:03.796Z,6.20
2019-03-12T07:06:42.697Z,6.20
2019-03-12T07:09:12.852Z,6.30
2019-03-12T07:11:54.894Z,6.50
2019-03-12T07:14:25.263Z,6.60
2019-03-12T07:17:00.955Z,6.60
2019-03-12T07:19:37.211Z,6.80
2019-03-12T07:22:16.222Z,7.00
2019-03-12T07:24:52.054Z,7.20
2019-03-12T07:27:38.719Z,7.60
2019-03-12T07:30:30.052Z,8.00
2019-03-12T07:33:12.490Z,8.50
2019-03-12T07:35:42.576Z,9.20
2019-03-12T07:38:12.660Z,9.90
2019-03-12T07:40:58.999Z,10.70
2019-03-12T07:43:32.103Z,11.60
2019-03-12T07:46:08.479Z,12.30
2019-03-12T07:48:51.286Z,12.70
2019-03-12T07:51:30.115Z,12.90
2019-03-12T07:54:18.679Z,13.00
2019-03-12T07:56:49.339Z,12.90
2019-03-12T07:59:37.723Z,12.80
2019-03-12T08:02:20.009Z,13.00
2019-03-12T08:04:50.211Z,13.20
2019-03-12T08:07:26.415Z,13.60
2019-03-12T08:10:01.129Z,14.00
2019-03-12T08:12:36.771Z,14.60
2019-03-12T08:15:22.683Z,14.80
2019-03-12T08:17:47.819Z,15.30
2019-03-12T08:20:23.662Z,15.40
2019-03-12T08:22:59.257Z,15.70
2019-03-12T08:25:35.359Z,15.90
2019-03-12T08:28:13.982Z,16.10
2019-03-12T08:30:44.140Z,16.10
2019-03-12T08:33:29.335Z,16.40
2019-03-12T08:35:59.439Z,16.60
2019-03-12T08:38:29.507Z,17.00
2019-03-12T08:41:08.970Z,17.00
2019-03-12T08:43:44.759Z,17.20
2019-03-12T08:46:18.400Z,17.30
2019-03-12T08:48:52.149Z,17.50
2019-03-12T08:51:34.502Z,17.80
2019-03-12T08:54:04.579Z,17.80
2019-03-12T08:56:34.674Z,17.60
2019-03-12T08:59:13.894Z,17.60
2019-03-12T09:01:47.308Z,17.60
2019-03-12T09:04:24.585Z,17.50
2019-03-12T09:06:54.689Z,17.70
2019-03-12T09:09:41.555Z,17.60
2019-03-12T09:12:11.653Z,17.50
2019-03-12T09:14:47.450Z,17.50
2019-03-12T09:17:23.266Z,17.60
2019-03-12T09:20:09.609Z,17.70
2019-03-12T09:22:46.048Z,17.60
2019-03-12T09:25:19.327Z,17.80
2019-03-12T09:27:54.575Z,18.10
2019-03-12T09:30:24.651Z,18.40
2019-03-12T09:33:12.886Z,18.30
2019-03-12T09:35:48.514Z,18.30
2019-03-12T09:38:18.600Z,18.20
2019-03-12T09:40:57.631Z,18.30
2019-03-12T09:43:33.653Z,18.30
2019-03-12T09:46:03.755Z,18.10
2019-03-12T09:48:33.827Z,18.00
2019-03-12T09:51:19.974Z,18.10
2019-03-12T09:54:02.391Z,18.10
2019-03-12T09:56:32.493Z,18.30
2019-03-12T09:59:02.599Z,18.10
2019-03-12T10:01:49.216Z,17.80
2019-03-12T10:04:31.088Z,17.90
2019-03-12T10:07:01.194Z,18.00
2019-03-12T10:09:40.244Z,18.30
2019-03-12T10:12:13.340Z,18.40
2019-03-12T10:14:55.331Z,18.40
2019-03-12T10:17:42.010Z,18.30
2019-03-12T10:20:15.092Z,17.90
2019-03-12T10:22:45.187Z,17.60
2019-03-12T10:25:15.439Z,17.50
2019-03-12T10:27:48.231Z,17.30
2019-03-12T10:30:27.608Z,17.30
2019-03-12T10:32:57.728Z,17.30
2019-03-12T10:35:33.768Z,17.40
2019-03-12T10:38:55.309Z,17.50
2019-03-12T10:41:41.506Z,17.40
2019-03-12T10:44:11.639Z,17.10
2019-03-12T10:46:44.422Z,16.60
2019-03-12T10:49:13.066Z,16.30
2019-03-12T10:51:41.494Z,16.30
2019-03-12T10:54:10.050Z,16.00
2019-03-12T10:56:38.579Z,15.80
2019-03-12T10:59:07.028Z,15.80
2019-03-12T11:01:35.470Z,15.70
2019-03-12T11:04:03.970Z,15.30
2019-03-12T11:06:32.447Z,15.10
2019-03-12T11:09:00.906Z,15.10
2019-03-12T11:11:29.367Z,15.00
2019-03-12T11:13:57.891Z,15.00
2019-03-12T11:16:26.378Z,15.10
2019-03-12T11:18:54.838Z,15.20
2019-03-12T11:21:23.262Z,15.20
2019-03-12T11:23:51.747Z,15.30
2019-03-12T11:26:20.181Z,15.20
2019-03-12T11:28:48.815Z,15.30
2019-03-12T11:31:17.313Z,15.20
2019-03-12T11:33:45.809Z,15.00
2019-03-12T11:36:14.253Z,14.90
2019-03-12T11:38:42.752Z,14.80
2019-03-12T11:41:11.221Z,14.70
2019-03-12T11:43:39.829Z,14.70
2019-03-12T11:46:08.325Z,14.60
2019-03-12T11:48:36.769Z,14.50
2019-03-12T11:51:06.001Z,14.50
2019-03-12T11:53:34.768Z,14.40
2019-03-12T11:56:03.457Z,14.10
2019-03-12T11:58:32.041Z,14.00
2019-03-12T12:01:02.326Z,14.00
2019-03-12T12:03:30.869Z,14.20
2019-03-12T12:05:59.437Z,14.40
2019-03-12T12:08:28.047Z,14.30
2019-03-12T12:10:56.564Z,14.30
2019-03-12T12:13:25.067Z,14.30
2019-03-12T12:15:53.528Z,14.10
2019-03-12T12:18:22.033Z,13.80
2019-03-12T12:20:50.551Z,13.40
2019-03-12T12:23:18.992Z,13.20
2019-03-12T12:25:47.447Z,13.00
2019-03-12T12:28:15.875Z,12.80
2019-03-12T12:30:44.335Z,12.80
2019-03-12T12:33:12.764Z,12.60
2019-03-12T12:35:41.235Z,12.40
2019-03-12T12:38:09.695Z,12.20
2019-03-12T12:40:38.214Z,12.10
2019-03-12T12:43:06.656Z,12.00
2019-03-12T12:45:39.773Z,11.90
2019-03-12T12:48:08.198Z,11.70
2019-03-12T12:50:36.660Z,11.60
2019-03-12T12:53:05.350Z,11.70
2019-03-12T12:55:33.858Z,11.80
2019-03-12T12:58:02.287Z,11.80
2019-03-12T13:00:31.090Z,11.60
2019-03-12T13:02:59.615Z,11.70
2019-03-12T13:05:28.240Z,11.70
2019-03-12T13:07:57.029Z,11.80
2019-03-12T13:10:30.433Z,11.90
2019-03-12T13:12:58.978Z,11.80
2019-03-12T13:15:27.547Z,11.70
2019-03-12T13:17:56.170Z,11.60
2019-03-12T13:20:24.677Z,11.80
2019-03-12T13:22:53.147Z,12.10
2019-03-12T13:25:22.510Z,12.70
2019-03-12T13:27:50.970Z,13.30
2019-03-12T13:30:26.783Z,14.10
2019-03-12T13:32:55.471Z,14.60
2019-03-12T13:35:24.108Z,15.00
2019-03-12T13:37:52.623Z,15.30
2019-03-12T13:40:22.637Z,15.60
2019-03-12T13:42:51.391Z,15.70
2019-03-12T13:45:29.743Z,15.60
2019-03-12T13:48:01.321Z,15.10
2019-03-12T13:50:29.969Z,14.60
2019-03-12T13:52:58.562Z,14.20
2019-03-12T13:55:27.065Z,13.70
2019-03-12T13:57:55.825Z,13.40
2019-03-12T14:00:26.404Z,13.30
2019-03-12T14:02:55.022Z,13.30
2019-03-12T14:05:23.572Z,13.50
2019-03-12T14:07:52.050Z,13.70
2019-03-12T14:10:25.320Z,13.90
2019-03-12T14:12:54.891Z,14.00
2019-03-12T14:15:34.762Z,14.10
2019-03-12T14:18:03.385Z,14.40
2019-03-12T14:20:49.048Z,14.50
2019-03-12T14:23:37.822Z,14.50
2019-03-12T14:26:06.509Z,14.60
2019-03-12T14:28:35.046Z,14.50
2019-03-12T14:31:03.748Z,14.60
2019-03-12T14:33:32.498Z,14.80
2019-03-12T14:36:01.071Z,15.00
2019-03-12T14:38:29.695Z,15.40
2019-03-12T14:40:58.354Z,15.90
2019-03-12T14:43:26.919Z,16.00
2019-03-12T14:45:55.424Z,15.80
2019-03-12T14:48:46.225Z,15.50
2019-03-12T14:51:34.389Z,15.20
2019-03-12T14:54:12.993Z,14.60
2019-03-12T14:56:41.912Z,13.90
2019-03-12T14:59:10.815Z,13.70
2019-03-12T15:01:39.320Z,13.50
2019-03-12T15:04:07.843Z,13.70
2019-03-12T15:06:36.343Z,14.10
2019-03-12T15:09:07.935Z,14.50
2019-03-12T15:11:36.362Z,14.80
2019-03-12T15:14:05.059Z,15.20
2019-03-12T15:16:33.493Z,15.40
2019-03-12T15:19:02.054Z,15.20
2019-03-12T15:21:30.555Z,14.90
2019-03-12T15:23:59.022Z,14.70
2019-03-12T15:26:27.447Z,14.50
2019-03-12T15:28:55.911Z,14.40
2019-03-12T15:31:24.499Z,14.30
2019-03-12T15:33:52.931Z,14.20
2019-03-12T15:36:21.484Z,14.10
2019-03-12T15:38:49.933Z,13.90
2019-03-12T15:41:18.386Z,13.90
2019-03-12T15:43:46.897Z,13.90
2019-03-12T15:46:15.369Z,13.90
2019-03-12T15:48:43.807Z,13.90
2019-03-12T15:51:12.340Z,13.80
2019-03-12T15:53:40.775Z,13.80
2019-03-12T15:56:09.253Z,13.80
2019-03-12T15:58:37.782Z,13.80
2019-03-12T16:01:06.262Z,13.60
2019-03-12T16:03:34.684Z,13.50
2019-03-12T16:06:03.152Z,13.60
2019-03-12T16:08:31.645Z,13.60
2019-03-12T16:11:00.099Z,13.50
2019-03-12T16:13:28.534Z,13.50
2019-03-12T16:15:57.084Z,13.40
2019-03-12T16:18:25.581Z,13.50
2019-03-12T16:20:54.040Z,13.50
2019-03-12T16:23:22.491Z,13.40
2019-03-12T16:25:51.020Z,13.30
2019-03-12T16:28:19.454Z,13.10
2019-03-12T16:30:47.909Z,12.90
2019-03-12T16:33:16.417Z,12.90
2019-03-12T16:35:44.943Z,12.90
2019-03-12T16:38:13.385Z,12.80
2019-03-12T16:40:41.831Z,12.70
2019-03-12T16:43:10.287Z,12.60
2019-03-12T16:45:38.742Z,12.50
2019-03-12T16:48:07.199Z,12.40
2019-03-12T16:50:35.632Z,12.30
2019-03-12T16:53:04.188Z,12.20
2019-03-12T16:55:32.650Z,12.10
2019-03-12T16:58:01.105Z,12.10
2019-03-12T17:00:29.589Z,12.00
2019-03-12T17:02:58.113Z,12.10
2019-03-12T17:05:26.760Z,12.10
2019-03-12T17:07:55.476Z,12.20
2019-03-12T17:10:24.262Z,12.10
2019-03-12T17:12:52.743Z,12.10
2019-03-12T17:15:29.124Z,12.00
2019-03-12T17:17:57.627Z,11.90
2019-03-12T17:20:26.146Z,11.90
2019-03-12T17:22:54.591Z,11.90
2019-03-12T17:25:23.059Z,12.00
2019-03-12T17:27:52.059Z,12.00
2019-03-12T17:30:22.739Z,12.00
2019-03-12T17:32:51.274Z,12.00
2019-03-12T17:35:28.684Z,12.00
2019-03-12T17:37:57.114Z,12.00
2019-03-12T17:40:25.578Z,12.10
2019-03-12T17:42:54.037Z,12.00
2019-03-12T17:45:22.555Z,12.00
2019-03-12T17:47:51.059Z,12.00
2019-03-12T17:50:19.516Z,12.00
2019-03-12T17:52:48.043Z,12.00
2019-03-12T17:55:16.617Z,12.10
2019-03-12T17:57:45.147Z,12.00
2019-03-12T18:00:28.286Z,11.90
2019-03-12T18:02:56.264Z,11.90
2019-03-12T18:05:26.070Z,11.90
2019-03-12T18:07:54.730Z,11.90
2019-03-12T18:10:23.234Z,12.00
2019-03-12T18:12:51.788Z,11.80
2019-03-12T18:15:21.169Z,11.80
2019-03-12T18:17:49.995Z,11.80
2019-03-12T18:20:22.679Z,11.90
2019-03-12T18:22:51.404Z,11.90
2019-03-12T18:25:23.147Z,11.90
2019-03-12T18:27:51.686Z,12.00
2019-03-12T18:30:20.126Z,12.10
2019-03-12T18:32:48.800Z,12.20
2019-03-12T18:35:17.478Z,12.20
2019-03-12T18:37:46.023Z,12.20
2019-03-12T18:40:20.607Z,12.20
2019-03-12T18:42:49.067Z,12.30
2019-03-12T18:45:29.798Z,12.30
2019-03-12T18:47:58.247Z,12.30
2019-03-12T18:50:26.761Z,12.30
2019-03-12T18:52:55.353Z,12.40
2019-03-12T18:55:38.165Z,12.40
2019-03-12T18:58:10.441Z,12.40
2019-03-12T19:00:41.107Z,12.30
2019-03-12T19:03:09.660Z,12.30
2019-03-12T19:05:38.096Z,12.20
2019-03-12T19:08:06.619Z,12.30
2019-03-12T19:10:35.226Z,12.30
2019-03-12T19:13:03.874Z,12.40
2019-03-12T19:15:32.367Z,12.40
2019-03-12T19:18:00.849Z,12.30
2019-03-12T19:20:29.283Z,12.30
2019-03-12T19:22:57.814Z,12.40
2019-03-12T19:25:28.986Z,12.50
2019-03-12T19:28:00.320Z,12.40
2019-03-12T19:30:27.836Z,12.60
2019-03-12T19:33:00.726Z,12.60
2019-03-12T19:35:33.075Z,12.60
2019-03-12T19:38:02.520Z,12.50
2019-03-12T19:40:45.223Z,12.50
2019-03-12T19:43:14.005Z,12.60
2019-03-12T19:45:42.587Z,12.60
2019-03-12T19:48:11.046Z,12.70
2019-03-12T19:50:39.610Z,12.70
2019-03-12T19:53:08.086Z,12.70
2019-03-12T19:55:45.316Z,12.70
2019-03-12T19:58:17.046Z,12.80
2019-03-12T20:00:47.415Z,12.80
2019-03-12T20:03:15.945Z,12.80
2019-03-12T20:05:44.483Z,12.70
2019-03-12T20:08:12.934Z,12.70
2019-03-12T20:10:50.211Z,12.60
2019-03-12T20:13:47.272Z,12.70
2019-03-12T20:16:44.342Z,12.80
2019-03-12T20:19:50.072Z,12.80
2019-03-12T20:22:53.668Z,12.80
2019-03-12T20:25:43.658Z,12.90
2019-03-12T20:28:31.619Z,12.90
2019-03-12T20:31:26.316Z,12.80
2019-03-12T20:34:25.529Z,12.70
2019-03-12T20:37:32.356Z,12.70
2019-03-12T20:40:35.141Z,12.70
2019-03-12T20:43:19.241Z,12.70
2019-03-12T20:46:13.313Z,12.70
2019-03-12T20:49:18.093Z,12.70
2019-03-12T20:52:10.444Z,12.80
2019-03-12T20:54:59.908Z,12.80
2019-03-12T20:58:04.500Z,12.80
2019-03-12T21:00:56.574Z,12.70
2019-03-12T21:03:52.294Z,12.80
2019-03-12T21:06:39.197Z,12.80
2019-03-12T21:09:46.460Z,12.80
2019-03-12T21:12:47.615Z,12.90
2019-03-12T21:15:38.834Z,12.80
2019-03-12T21:18:45.746Z,12.80
2019-03-12T21:21:33.806Z,12.90
2019-03-12T21:24:12.741Z,12.90
2019-03-12T21:27:03.199Z,12.90
2019-03-12T21:29:50.338Z,13.00
2019-03-12T21:32:19.700Z,13.00
2019-03-12T21:34:49.589Z,13.10
2019-03-12T21:37:18.945Z,13.10
2019-03-12T21:39:55.902Z,13.20
2019-03-12T21:42:24.968Z,13.20
2019-03-12T21:44:55.663Z,13.30
2019-03-12T21:47:26.069Z,13.40
2019-03-12T21:49:57.484Z,13.40
2019-03-12T21:52:30.617Z,13.40
2019-03-12T21:54:59.099Z,13.20
2019-03-12T21:57:28.863Z,13.10
2019-03-12T21:59:59.231Z,13.10
2019-03-12T22:02:29.523Z,13.10
2019-03-12T22:04:59.128Z,13.10
2019-03-12T22:07:28.403Z,13.10
2019-03-12T22:09:57.993Z,13.00
2019-03-12T22:12:28.664Z,13.00
2019-03-12T22:14:58.410Z,13.00
2019-03-12T22:17:28.354Z,12.90
2019-03-12T22:19:57.123Z,12.80
2019-03-12T22:22:56.297Z,12.90
2019-03-12T22:25:26.449Z,12.90
2019-03-12T22:27:55.806Z,12.90
2019-03-12T22:30:31.068Z,12.90
2019-03-12T22:32:59.937Z,12.90
2019-03-12T22:35:30.194Z,12.80
2019-03-12T22:37:59.896Z,12.80
2019-03-12T22:40:28.423Z,12.70
2019-03-12T22:42:57.068Z,12.70
2019-03-12T22:45:25.552Z,12.80
2019-03-12T22:47:54.447Z,12.90
2019-03-12T22:50:22.934Z,12.70
2019-03-12T22:52:51.388Z,12.70
2019-03-12T22:55:19.886Z,12.60
2019-03-12T22:57:48.359Z,12.60
2019-03-12T23:00:18.199Z,12.70
2019-03-12T23:02:46.731Z,12.70
2019-03-12T23:05:15.742Z,12.80
2019-03-12T23:07:44.463Z,12.80
2019-03-12T23:10:14.716Z,12.80
2019-03-12T23:12:43.706Z,12.70
2019-03-12T23:15:17.271Z,12.70
2019-03-12T23:17:45.872Z,12.60
2019-03-12T23:20:17.607Z,12.50
2019-03-12T23:22:46.063Z,12.40
2019-03-12T23:25:14.494Z,12.40
2019-03-12T23:27:43.472Z,12.30
2019-03-12T23:30:14.865Z,12.20
2019-03-12T23:32:43.627Z,12.20
2019-03-12T23:35:12.210Z,12.00
2019-03-12T23:37:40.670Z,12.00
2019-03-12T23:40:11.896Z,12.00
2019-03-12T23:42:40.550Z,11.90
2019-03-12T23:45:10.798Z,12.00
2019-03-12T23:47:39.518Z,11.90
2019-03-12T23:50:13.548Z,11.80
2019-03-12T23:52:42.345Z,11.70
2019-03-12T23:55:12.582Z,11.60
2019-03-12T23:57:41.100Z,11.60
